This is the latest recevied weather packets stored in our database for station/object HS9UAC-10. If no packets are shown the sender has not sent any weather packets the latest 10 day(s).
| Time | Temp. | Humidity | Pressure | Rain* | Wind** | Luminosity | Snow |
|---|---|---|---|---|---|---|---|
| 1777979771 | 36.67° C | 57% | 1004 hPa | - | - | 0 W/m² | - |
| 1777978846 | 37.22° C | 55% | 1004 hPa | - | - | 0 W/m² | - |
| 1777976997 | 38.33° C | 50% | 1004 hPa | - | - | 0 W/m² | - |
| 1777976073 | 38.33° C | 50% | 1004 hPa | - | - | 0 W/m² | - |
| 1777975148 | 39.44° C | 47% | 1004 hPa | - | - | 0 W/m² | - |
| 1777973299 | 40° C | 47% | 1004 hPa | - | - | 0 W/m² | - |
| 1777972374 | 40.56° C | 45% | 1004 hPa | - | - | 0 W/m² | - |
| 1777971449 | 40.56° C | 46% | 1004 hPa | - | - | 0 W/m² | - |
| 1777969600 | 41.11° C | 44% | 1004 hPa | - | - | 0 W/m² | - |
| 1777968676 | 43.33° C | 40% | 1005 hPa | - | - | 0 W/m² | - |
| 1777967751 | 41.11° C | 43% | 1005 hPa | - | - | 0 W/m² | - |
| 1777966827 | 38.33° C | 52% | 1005 hPa | - | - | 0 W/m² | - |
| 1777965902 | 40° C | 48% | 1005 hPa | - | - | 0 W/m² | - |
| 1777964977 | 39.44° C | 49% | 1006 hPa | - | - | 0 W/m² | - |
| 1777964053 | 38.89° C | 52% | 1006 hPa | - | - | 0 W/m² | - |
| 1777963128 | 39.44° C | 49% | 1006 hPa | - | - | 0 W/m² | - |
| 1777962204 | 39.44° C | 48% | 1007 hPa | - | - | 0 W/m² | - |
| 1777961279 | 41.11° C | 46% | 1007 hPa | - | - | 0 W/m² | - |
| 1777960355 | 40° C | 47% | 1007 hPa | - | - | 0 W/m² | - |
| 1777959430 | 39.44° C | 46% | 1007 hPa | - | - | 0 W/m² | - |
| 1777958505 | 39.44° C | 46% | 1008 hPa | - | - | 0 W/m² | - |
| 1777957581 | 40° C | 45% | 1008 hPa | - | - | 0 W/m² | - |
| 1777956656 | 40° C | 46% | 1008 hPa | - | - | 0 W/m² | - |
| 1777955732 | 38.89° C | 48% | 1008 hPa | - | - | 0 W/m² | - |
| 1777954807 | 40° C | 49% | 1008 hPa | - | - | 0 W/m² | - |
* Rain since midnight (hover to see other rain measurements)
** Current wind speed in m/s (hover to see current wind gust speed)